KSNAKPSP

Guest
Details From KSNA - Orange County - John Wayne
To KPSP - Palm Springs Intl
Flight Number -
Tags generated
Created
Modified
Stats Distance 69 nm / 127 km
Max Altitude 8,900 ft / 2,713 m
Waypoints 3
Social Downloads 0
Likes 0
Share VATSIM

Download

Looking for another format? Having issues loading an existing format? Contact us
Advertisement - Login to hide

Notes

Basic altitude profile: - Ascent Rate: 2500ft/min - Ascent Speed: 250kts - Cruise Altitude: 35000ft - Cruise Speed: 420kts - Descent Rate: 1500ft/min - Descent Speed: 250kts Options: - Use NATs: no - Use PACOTS: no - Use low airways: yes - Use high airways: no

Route

KSNA NIKKL KPSP

ID Type Via Altitude Latitude Longitude Leg Dist Tot Dist Heading (true) Name
O KSNA APT - 0 ft / 0 m 33.67611˚ -117.86764˚ - 0 nm - Orange County - John Wayne
NIKKL FIX - 8,900 ft / 2,713 m 33.73086˚ -117.37294˚ 24 nm 24 nm 82° / 83° -
O KPSP APT - 0 ft / 0 m 33.82968˚ -116.50622˚ 43 nm 68 nm 82° / 82° Palm Springs Intl

Altitude Profile

Advertisement - Login to hide

KSNA

Details ICAO KSNA (SNA)
Name Orange County - John Wayne
Region United States
Timezone America/Los_Angeles (UTC-7.0)
Stats Elevation 56 ft / 17 m (AMSL)
Location 33.676112° -117.867636°
Runways 2
Magnetic Variation 11.800° E

METAR

KSNA 222153Z 24007KT 8SM CLR 24/16 A2983 RMK AO2 SLP100 T02440161

Decode

TAF

KSNA 221739Z 2218/2318 VRB05KT 6SM HZ BKN013 FM221900 22010KT P6SM FEW015 FM230430 VRB05KT P6SM OVC010

Decode

Departure Runways

ID Width Length Bearing (true) Bearing (mag) Surface Threshold Offset Overrun Length
01L 151 ft / 46 m 5,711 ft / 1,741 m 27.81° 16.01° Asphalt 0 ft / 0 m 1,050 ft / 320 m
01R 75 ft / 23 m 2,892 ft / 881 m 27.80° 16.00° Asphalt 0 ft / 0 m 400 ft / 122 m
19L 75 ft / 23 m 2,892 ft / 881 m 207.80° 196.00° Asphalt 0 ft / 0 m 151 ft / 46 m
19R 151 ft / 46 m 5,711 ft / 1,741 m 207.81° 196.01° Asphalt 0 ft / 0 m 194 ft / 59 m

KPSP

Details ICAO KPSP (PSP)
Name Palm Springs Intl
Region United States
Timezone America/Los_Angeles (UTC-7.0)
Stats Elevation 477 ft / 145 m (AMSL)
Location 33.829677° -116.506218°
Runways 2
Magnetic Variation 11.534° E

METAR

KPSP 222229Z 33015G22KT 10SM CLR 45/02 A2966 RMK AO2 T04500017

Decode

TAF

KPSP 221739Z 2218/2318 VRB06KT P6SM SKC FM230000 31013G20KT P6SM SKC FM230700 VRB05KT P6SM SKC

Decode

Destination Runways

ID Width Length Bearing (true) Bearing (mag) Surface Threshold Offset Overrun Length
13L 75 ft / 23 m 4,958 ft / 1,511 m 143.52° 131.99° Asphalt 0 ft / 0 m 151 ft / 46 m
13R 151 ft / 46 m 10,012 ft / 3,052 m 143.52° 131.99° Asphalt 2,999 ft / 914 m 200 ft / 61 m
31L 151 ft / 46 m 10,012 ft / 3,052 m 323.53° 312.00° Asphalt 1,499 ft / 457 m 200 ft / 61 m
31R 75 ft / 23 m 4,958 ft / 1,511 m 323.53° 312.00° Asphalt 0 ft / 0 m 151 ft / 46 m

Popular Alternatives